This is the latest recevied weather packets stored in our database for station/object KB9PMA-1. If no packets are shown the sender has not sent any weather packets the latest 10 day(s).
| Time | Temp. | Humidity | Pressure | Rain* | Wind** | Luminosity | Snow |
|---|---|---|---|---|---|---|---|
| 1777825082 | 15° C | 44% | 1017.6 hPa | 0 mm | - | - | - |
| 1777824482 | 15.56° C | 44% | 1017.7 hPa | 0 mm | - | - | - |
| 1777823882 | 15° C | 44% | 1017.9 hPa | 0 mm | - | - | - |
| 1777822682 | 15° C | 46% | 1018 hPa | 0 mm | - | - | - |
| 1777822082 | 14.44° C | 47% | 1018.1 hPa | 0 mm | - | - | - |
| 1777821482 | 14.44° C | 48% | 1018.2 hPa | 0 mm | - | - | - |
| 1777815482 | 11.11° C | 57% | 1018.7 hPa | 0 mm | - | - | - |
| 1777814282 | 9.44° C | 65% | 1018.5 hPa | 0 mm | - | - | - |
| 1777807383 | 3.33° C | 89% | 1018.3 hPa | 0 mm | - | - | - |
| 1777807083 | 2.78° C | 89% | 1018.2 hPa | 0 mm | - | - | - |
| 1777806483 | 2.78° C | 90% | 1018.2 hPa | 0 mm | - | - | - |
| 1777806183 | 2.78° C | 90% | 1018.2 hPa | 0 mm | - | - | - |
| 1777805883 | 2.78° C | 90% | 1018.1 hPa | 0 mm | - | - | - |
| 1777805583 | 2.78° C | 90% | 1018.2 hPa | 0 mm | - | - | - |
| 1777805283 | 2.78° C | 90% | 1018.1 hPa | 0 mm | - | - | - |
| 1777804683 | 2.78° C | 90% | 1018 hPa | 0 mm | - | - | - |
| 1777804383 | 2.22° C | 90% | 1018 hPa | 0 mm | - | - | - |
| 1777804083 | 2.78° C | 90% | 1018 hPa | 0 mm | - | - | - |
| 1777803483 | 2.78° C | 90% | 1017.9 hPa | 0 mm | - | - | - |
| 1777803183 | 2.78° C | 90% | 1017.8 hPa | 0 mm | - | - | - |
| 1777802883 | 2.78° C | 90% | 1017.8 hPa | 0 mm | - | - | - |
| 1777802583 | 2.22° C | 90% | 1017.9 hPa | 0 mm | - | - | - |
| 1777802283 | 2.78° C | 90% | 1017.9 hPa | 0 mm | - | - | - |
| 1777801983 | 2.22° C | 90% | 1017.9 hPa | 0 mm | - | - | - |
| 1777801683 | 2.22° C | 90% | 1017.9 hPa | 0 mm | - | - | - |
* Rain latest hour (hover to see other rain measurements)
** Current wind speed in m/s (hover to see current wind gust speed)